Time;durP1;ratioP1;P1;durP2;ratioP2;P2;SDS_P1;SDS_P2;PMS_P1;PMS_P2;Temp;Humidity;BMP_temperature;BMP_pressure;BME280_temperature;BME280_humidity;BME280_pressure;Samples;Min_cycle;Max_cycle;Signal;HPM_P1;HPM_P2
2023/07/24 00:01:08;;;;;;;6.63;4.90;;;25.50;46.90;;;;;;5059478;28;20697;-68
2023/07/24 00:03:34;;;;;;;4.23;3.40;;;25.50;47.00;;;;;;5058067;28;20517;-68
2023/07/24 00:05:59;;;;;;;5.33;3.80;;;25.50;47.00;;;;;;5059167;28;20171;-68
2023/07/24 00:08:25;;;;;;;4.30;3.53;;;25.50;47.00;;;;;;5059356;28;20206;-68
2023/07/24 00:10:51;;;;;;;4.73;4.30;;;25.50;47.00;;;;;;5059564;28;20174;-68
2023/07/24 00:13:16;;;;;;;4.47;4.03;;;25.50;47.00;;;;;;5059607;28;20167;-68
2023/07/24 00:15:42;;;;;;;4.53;3.20;;;25.50;47.00;;;;;;5059469;28;20171;-68
2023/07/24 00:18:07;;;;;;;4.53;3.80;;;25.50;47.00;;;;;;5058748;28;20240;-68
2023/07/24 00:20:33;;;;;;;5.40;4.57;;;25.50;47.00;;;;;;5059404;28;20167;-69
2023/07/24 00:22:59;;;;;;;4.40;3.50;;;25.50;46.90;;;;;;5058053;28;20589;-68
2023/07/24 00:25:24;;;;;;;5.53;4.40;;;25.60;47.00;;;;;;5058814;28;20174;-68
2023/07/24 00:27:50;;;;;;;4.23;3.70;;;25.50;46.90;;;;;;5057454;28;20285;-68
2023/07/24 00:30:16;;;;;;;5.10;4.43;;;25.50;46.90;;;;;;5058628;28;20186;-68
2023/07/24 00:32:41;;;;;;;5.17;4.00;;;25.50;46.80;;;;;;5058497;28;20213;-68
2023/07/24 00:35:07;;;;;;;4.57;4.17;;;25.50;46.80;;;;;;5059563;28;20171;-68
2023/07/24 00:37:33;;;;;;;5.10;4.07;;;25.50;46.80;;;;;;5058572;28;20244;-68
2023/07/24 00:39:58;;;;;;;5.70;4.30;;;25.50;47.30;;;;;;5061401;28;20473;-68
2023/07/24 00:42:24;;;;;;;5.17;4.23;;;25.50;46.70;;;;;;5063143;28;20167;-67
2023/07/24 00:44:49;;;;;;;4.33;3.73;;;25.50;46.70;;;;;;5063589;28;20232;-68
2023/07/24 00:47:15;;;;;;;4.50;3.70;;;25.50;46.70;;;;;;5063125;28;20191;-68
2023/07/24 00:49:41;;;;;;;5.70;4.40;;;25.50;46.70;;;;;;5062910;28;20285;-68
2023/07/24 00:52:07;;;;;;;5.03;4.33;;;25.50;46.60;;;;;;5063310;28;20238;-68
2023/07/24 00:54:33;;;;;;;5.03;4.53;;;25.50;46.60;;;;;;5063231;28;20572;-68
2023/07/24 00:57:00;;;;;;;5.40;4.67;;;25.50;46.60;;;;;;5062873;28;20417;-68
2023/07/24 00:59:26;;;;;;;4.80;4.20;;;25.50;46.60;;;;;;5062908;28;20487;-69
2023/07/24 01:01:52;;;;;;;5.23;4.70;;;25.50;46.60;;;;;;5063220;28;20409;-69
2023/07/24 01:04:18;;;;;;;5.07;4.57;;;25.50;46.60;;;;;;5062841;28;20420;-68
2023/07/24 01:06:44;;;;;;;5.10;4.33;;;25.50;46.60;;;;;;5063132;28;20202;-68
2023/07/24 01:09:10;;;;;;;5.40;4.60;;;25.50;46.60;;;;;;5061686;28;20946;-68
2023/07/24 01:11:37;;;;;;;6.00;4.63;;;25.50;46.60;;;;;;5063389;28;20409;-68
2023/07/24 01:14:16;;;;;;;5.03;4.37;;;25.50;46.50;;;;;;5062935;28;20492;-68
2023/07/24 01:16:43;;;;;;;5.30;4.30;;;25.50;46.50;;;;;;5062870;28;20397;-68
2023/07/24 01:19:35;;;;;;;8.90;4.23;;;25.50;46.60;;;;;;5062999;28;20494;-67
2023/07/24 01:22:24;;;;;;;6.03;4.60;;;25.50;46.50;;;;;;5062454;28;20409;-68
2023/07/24 01:25:29;;;;;;;7.13;4.43;;;25.50;46.50;;;;;;5062845;28;20405;-68
2023/07/24 01:27:55;;;;;;;5.00;4.20;;;25.50;46.60;;;;;;5061666;28;20493;-68
2023/07/24 01:30:21;;;;;;;5.50;4.50;;;25.50;46.60;;;;;;5061283;28;21009;-68
2023/07/24 01:32:47;;;;;;;6.40;4.77;;;25.50;46.60;;;;;;5062929;28;20541;-68
2023/07/24 01:35:13;;;;;;;6.23;4.63;;;25.50;46.70;;;;;;5063112;28;20401;-68
2023/07/24 01:37:40;;;;;;;6.23;5.20;;;25.50;46.70;;;;;;5062270;28;20526;-68
2023/07/24 01:40:10;;;;;;;6.20;4.37;;;25.50;46.70;;;;;;5060886;28;20261;-68
2023/07/24 01:42:36;;;;;;;5.03;4.40;;;25.50;46.70;;;;;;5062486;28;20389;-68
2023/07/24 01:45:04;;;;;;;5.00;4.50;;;25.50;46.70;;;;;;5062526;28;20448;-68
2023/07/24 01:47:32;;;;;;;6.83;5.13;;;25.50;46.80;;;;;;5062598;28;20515;-68
2023/07/24 01:49:58;;;;;;;5.80;4.20;;;25.50;46.80;;;;;;5061660;28;20467;-68
2023/07/24 01:52:23;;;;;;;4.73;4.23;;;25.50;46.80;;;;;;5062633;28;20991;-68
2023/07/24 01:54:50;;;;;;;5.40;4.30;;;25.50;46.80;;;;;;5061995;28;20225;-68
2023/07/24 01:57:15;;;;;;;5.90;4.90;;;25.50;46.80;;;;;;5060710;28;20209;-68
2023/07/24 01:59:41;;;;;;;7.03;5.00;;;25.50;46.80;;;;;;5062466;28;20796;-67
2023/07/24 02:02:06;;;;;;;5.50;4.83;;;25.50;46.80;;;;;;5062294;28;20202;-68
2023/07/24 02:04:32;;;;;;;6.53;4.90;;;25.50;46.80;;;;;;5062363;28;20651;-68
2023/07/24 02:06:57;;;;;;;5.17;4.40;;;25.50;46.80;;;;;;5063107;28;20289;-68
2023/07/24 02:09:23;;;;;;;5.70;4.97;;;25.50;46.90;;;;;;5062174;28;20198;-68
2023/07/24 02:11:49;;;;;;;6.23;4.87;;;25.50;46.90;;;;;;5062084;28;20181;-68
2023/07/24 02:14:16;;;;;;;6.30;4.93;;;25.50;46.90;;;;;;5061618;28;20518;-68
2023/07/24 02:16:42;;;;;;;6.00;5.00;;;25.50;47.00;;;;;;5062078;28;20190;-68
2023/07/24 02:19:07;;;;;;;5.53;4.93;;;25.50;47.00;;;;;;5061888;28;20465;-68
2023/07/24 02:21:33;;;;;;;5.70;4.87;;;25.50;47.10;;;;;;5060314;28;20167;-68
2023/07/24 02:23:59;;;;;;;6.47;5.20;;;25.50;47.10;;;;;;5061166;28;20178;-68
2023/07/24 02:26:24;;;;;;;5.37;4.83;;;25.50;47.20;;;;;;5061028;28;20163;-69
2023/07/24 02:28:50;;;;;;;7.10;5.33;;;25.50;47.20;;;;;;5060263;28;20199;-68
2023/07/24 02:31:16;;;;;;;6.47;5.50;;;25.50;47.20;;;;;;5061193;28;20171;-68
2023/07/24 02:33:41;;;;;;;5.70;5.07;;;25.50;47.20;;;;;;5059709;28;20233;-68
2023/07/24 02:36:07;;;;;;;7.23;5.07;;;25.50;47.30;;;;;;5060802;28;20183;-68
2023/07/24 02:38:33;;;;;;;5.80;4.70;;;25.50;47.40;;;;;;5060639;28;20599;-68
2023/07/24 02:40:58;;;;;;;7.07;5.10;;;25.50;47.40;;;;;;5060868;28;20402;-68
2023/07/24 02:43:24;;;;;;;4.97;4.23;;;25.50;47.50;;;;;;5060588;28;20294;-68
2023/07/24 02:45:50;;;;;;;5.37;4.53;;;25.50;47.50;;;;;;5061090;28;20667;-68
2023/07/24 02:48:15;;;;;;;6.37;4.60;;;25.50;47.50;;;;;;5061981;28;20202;-68
2023/07/24 02:50:41;;;;;;;6.00;5.17;;;25.50;47.50;;;;;;5061429;28;20159;-68
2023/07/24 02:53:06;;;;;;;5.77;4.57;;;25.50;47.50;;;;;;5060890;28;20225;-68
2023/07/24 02:55:32;;;;;;;5.07;4.57;;;25.50;47.60;;;;;;5061607;28;20190;-68
2023/07/24 02:57:58;;;;;;;6.90;5.03;;;25.50;47.70;;;;;;5061404;28;20232;-68
2023/07/24 03:00:23;;;;;;;7.63;5.87;;;25.50;47.70;;;;;;5061508;28;20201;-69
2023/07/24 03:02:49;;;;;;;7.40;4.80;;;25.50;47.70;;;;;;5059845;28;20183;-68
2023/07/24 03:05:14;;;;;;;5.50;4.93;;;25.50;47.80;;;;;;5059930;28;20198;-68
2023/07/24 03:07:40;;;;;;;6.77;5.63;;;25.50;47.80;;;;;;5061260;28;20223;-68
2023/07/24 03:10:07;;;;;;;4.97;4.47;;;25.50;47.90;;;;;;5062257;28;20171;-67
2023/07/24 03:12:33;;;;;;;5.47;4.50;;;25.50;47.90;;;;;;5059825;28;20178;-68
2023/07/24 03:14:58;;;;;;;8.67;6.00;;;25.50;47.90;;;;;;5061202;28;20489;-68
2023/07/24 03:17:24;;;;;;;6.30;4.70;;;25.50;48.00;;;;;;5060951;28;20195;-69
2023/07/24 03:19:50;;;;;;;7.10;5.30;;;25.50;48.00;;;;;;5061001;28;20285;-68
2023/07/24 03:22:15;;;;;;;6.83;5.30;;;25.50;48.10;;;;;;5060880;28;20717;-68
2023/07/24 03:24:41;;;;;;;8.40;5.50;;;25.50;48.10;;;;;;5060998;28;20183;-68
2023/07/24 03:27:06;;;;;;;6.33;5.17;;;25.50;48.10;;;;;;5060081;28;20198;-68
2023/07/24 03:29:32;;;;;;;5.33;4.83;;;25.50;48.20;;;;;;5060437;28;20711;-69
2023/07/24 03:31:58;;;;;;;5.47;4.83;;;25.50;48.20;;;;;;5060493;28;20170;-68
2023/07/24 03:34:23;;;;;;;6.23;5.23;;;25.50;48.30;;;;;;5054720;28;20184;-68
2023/07/24 03:36:49;;;;;;;6.07;4.73;;;25.50;48.30;;;;;;5058467;28;20553;-68
2023/07/24 03:39:15;;;;;;;6.43;5.60;;;25.50;48.30;;;;;;5060755;28;20203;-68
2023/07/24 03:41:42;;;;;;;6.07;4.80;;;25.50;48.30;;;;;;5059599;28;20179;-68
2023/07/24 03:44:07;;;;;;;8.13;5.63;;;25.50;48.40;;;;;;5059170;28;20349;-68
2023/07/24 03:46:33;;;;;;;6.87;4.97;;;25.50;48.50;;;;;;5061194;28;20936;-68
2023/07/24 03:48:59;;;;;;;6.90;5.40;;;25.50;48.50;;;;;;5058936;28;20333;-68
2023/07/24 03:51:25;;;;;;;6.37;4.90;;;25.50;48.60;;;;;;5060374;28;20466;-68
2023/07/24 03:53:50;;;;;;;8.47;5.30;;;25.50;48.50;;;;;;5060117;28;20205;-68
2023/07/24 03:56:16;;;;;;;5.93;4.87;;;25.50;48.50;;;;;;5060616;28;20178;-69
2023/07/24 03:58:42;;;;;;;6.10;5.40;;;25.50;48.60;;;;;;5060685;28;20210;-68
2023/07/24 04:01:08;;;;;;;7.17;4.87;;;25.50;48.60;;;;;;5059231;28;20588;-68
2023/07/24 04:03:34;;;;;;;5.93;4.93;;;25.50;48.60;;;;;;5060165;28;20640;-67
2023/07/24 04:05:59;;;;;;;6.53;5.57;;;25.50;48.70;;;;;;5060016;28;20424;-68
2023/07/24 04:08:25;;;;;;;6.40;5.40;;;25.50;48.70;;;;;;5060853;28;20199;-68
2023/07/24 04:10:51;;;;;;;7.33;5.53;;;25.50;48.70;;;;;;5060651;28;20573;-68
2023/07/24 04:13:16;;;;;;;6.50;5.10;;;25.50;48.70;;;;;;5060634;28;20201;-68
2023/07/24 04:15:44;;;;;;;7.90;5.40;;;25.50;48.70;;;;;;5060535;28;20171;-68
2023/07/24 04:18:09;;;;;;;6.70;5.50;;;25.50;48.80;;;;;;5059513;28;20737;-68
2023/07/24 04:20:35;;;;;;;8.70;5.40;;;25.50;48.80;;;;;;5060432;28;20405;-68
2023/07/24 04:23:00;;;;;;;6.43;5.40;;;25.50;48.80;;;;;;5058841;28;20167;-68
2023/07/24 04:25:27;;;;;;;7.40;5.53;;;25.50;48.80;;;;;;5059752;28;20246;-68
2023/07/24 04:27:52;;;;;;;7.07;5.83;;;25.50;49.00;;;;;;5058047;28;20293;-69
2023/07/24 04:30:18;;;;;;;7.60;5.43;;;25.50;48.90;;;;;;5060312;28;20409;-68
2023/07/24 04:32:43;;;;;;;7.10;5.83;;;25.50;49.00;;;;;;5059849;28;20179;-68
2023/07/24 04:35:09;;;;;;;5.90;5.03;;;25.50;49.00;;;;;;5059114;28;20167;-68
2023/07/24 04:37:35;;;;;;;5.17;4.43;;;25.50;49.00;;;;;;5059308;28;20221;-68
2023/07/24 04:40:00;;;;;;;7.57;5.53;;;25.50;49.00;;;;;;5059938;28;20651;-68
2023/07/24 04:42:26;;;;;;;6.90;5.40;;;25.50;49.00;;;;;;5059642;28;20183;-68
2023/07/24 04:44:52;;;;;;;7.30;5.57;;;25.50;49.00;;;;;;5060017;28;20190;-68
2023/07/24 04:47:17;;;;;;;6.73;5.00;;;25.50;49.10;;;;;;5059003;28;20238;-69
2023/07/24 04:49:43;;;;;;;8.27;5.90;;;25.50;49.10;;;;;;5059182;28;20194;-67
2023/07/24 04:52:08;;;;;;;7.13;5.40;;;25.50;49.10;;;;;;5060197;28;20656;-68
2023/07/24 04:54:34;;;;;;;8.00;5.60;;;25.60;49.20;;;;;;5059160;28;20181;-68
2023/07/24 04:56:59;;;;;;;6.00;5.40;;;25.50;49.10;;;;;;5059586;28;20175;-68
2023/07/24 04:59:25;;;;;;;8.17;5.40;;;25.60;49.10;;;;;;5059853;28;20590;-68
2023/07/24 05:01:51;;;;;;;8.20;5.50;;;25.60;49.10;;;;;;5059576;28;20179;-68
2023/07/24 05:04:16;;;;;;;5.57;4.57;;;25.50;49.00;;;;;;5059198;28;20177;-68
2023/07/24 05:06:42;;;;;;;6.10;4.83;;;25.50;49.10;;;;;;5060224;28;20286;-68
2023/07/24 05:09:07;;;;;;;6.47;5.40;;;25.50;48.90;;;;;;5059451;28;20198;-68
2023/07/24 05:11:33;;;;;;;7.80;5.07;;;25.50;49.00;;;;;;5058879;28;20179;-68
2023/07/24 05:13:59;;;;;;;6.83;4.50;;;25.60;49.10;;;;;;5058911;28;20183;-68
2023/07/24 05:16:24;;;;;;;6.73;5.33;;;25.60;49.00;;;;;;5059184;28;20190;-68
2023/07/24 05:18:50;;;;;;;7.60;5.93;;;25.60;48.90;;;;;;5057852;28;20233;-68
2023/07/24 05:21:15;;;;;;;9.23;5.83;;;25.50;48.80;;;;;;5058279;28;20167;-68
2023/07/24 05:23:41;;;;;;;7.80;5.07;;;25.60;48.90;;;;;;5057381;28;20734;-68
2023/07/24 05:26:06;;;;;;;7.37;5.53;;;25.50;48.90;;;;;;5059357;28;20175;-68
2023/07/24 05:28:33;;;;;;;6.90;5.50;;;25.50;48.80;;;;;;5061097;28;20206;-68
2023/07/24 05:31:03;;;;;;;6.20;4.80;;;25.60;48.90;;;;;;5061813;28;20179;-68
2023/07/24 05:33:29;;;;;;;6.20;5.10;;;25.60;49.00;;;;;;5063263;28;20445;-68
2023/07/24 05:36:02;;;;;;;6.53;5.00;;;25.60;49.00;;;;;;5062067;28;20436;-68
2023/07/24 05:38:28;;;;;;;7.57;5.13;;;25.60;49.10;;;;;;5063097;28;20465;-68
2023/07/24 05:40:55;;;;;;;6.53;5.17;;;25.60;49.00;;;;;;5062114;28;20413;-67
2023/07/24 05:43:21;;;;;;;7.93;5.50;;;25.60;49.00;;;;;;5062305;28;20414;-68
2023/07/24 05:45:46;;;;;;;7.20;6.20;;;25.60;49.00;;;;;;5062203;28;20443;-69
2023/07/24 05:48:12;;;;;;;6.10;5.20;;;25.60;49.00;;;;;;5061774;28;20218;-68
2023/07/24 05:50:37;;;;;;;8.20;5.30;;;25.60;49.10;;;;;;5062662;28;20395;-67
2023/07/24 05:53:03;;;;;;;7.13;5.37;;;25.60;49.10;;;;;;5062198;28;20225;-68
2023/07/24 05:55:28;;;;;;;7.20;5.37;;;25.60;49.00;;;;;;5062402;28;20288;-68
2023/07/24 05:57:54;;;;;;;7.27;5.10;;;25.60;49.00;;;;;;5061699;28;20213;-68
2023/07/24 06:00:20;;;;;;;5.80;4.80;;;25.60;49.00;;;;;;5062047;28;20196;-67
2023/07/24 06:02:45;;;;;;;7.03;5.73;;;25.60;49.00;;;;;;5060983;28;20175;-68
2023/07/24 06:05:11;;;;;;;6.70;4.53;;;25.60;49.10;;;;;;5061824;28;20731;-68
2023/07/24 06:07:37;;;;;;;7.37;6.00;;;25.60;49.20;;;;;;5061223;28;20195;-68
2023/07/24 06:10:02;;;;;;;9.07;6.03;;;25.60;49.30;;;;;;5062178;28;20186;-68
2023/07/24 06:12:28;;;;;;;7.20;5.90;;;25.60;49.30;;;;;;5062263;28;20202;-68
2023/07/24 06:14:54;;;;;;;8.07;5.90;;;25.60;49.20;;;;;;5061934;28;20320;-68
2023/07/24 06:17:19;;;;;;;8.57;5.20;;;25.60;49.90;;;;;;5062079;28;20198;-68
2023/07/24 06:19:45;;;;;;;8.00;6.27;;;25.60;49.30;;;;;;5061814;28;20211;-68
2023/07/24 06:22:10;;;;;;;6.63;5.40;;;25.60;49.30;;;;;;5062001;28;20174;-68
2023/07/24 06:24:36;;;;;;;7.53;6.10;;;25.60;49.20;;;;;;5061959;28;20171;-68
2023/07/24 06:27:02;;;;;;;9.33;6.23;;;25.60;49.30;;;;;;5062005;28;20190;-68
2023/07/24 06:29:28;;;;;;;8.00;6.20;;;25.60;49.30;;;;;;5060102;28;20230;-68
2023/07/24 06:31:53;;;;;;;7.00;6.07;;;25.60;49.20;;;;;;5061425;28;20171;-68
2023/07/24 06:34:19;;;;;;;7.47;5.50;;;25.60;49.10;;;;;;5061792;28;20541;-68
2023/07/24 06:36:45;;;;;;;8.60;5.83;;;25.60;49.10;;;;;;5060293;28;20221;-68
2023/07/24 06:39:10;;;;;;;6.67;5.90;;;25.60;49.20;;;;;;5062700;28;20199;-68
2023/07/24 06:41:36;;;;;;;8.70;5.90;;;25.60;49.30;;;;;;5061520;28;20171;-68
2023/07/24 06:44:01;;;;;;;8.50;6.10;;;25.60;49.30;;;;;;5061142;28;20178;-68
2023/07/24 06:46:27;;;;;;;8.87;6.07;;;25.70;49.30;;;;;;5059885;28;20187;-68
2023/07/24 06:48:52;;;;;;;8.60;5.17;;;25.60;49.20;;;;;;5060231;28;20274;-68
2023/07/24 06:51:18;;;;;;;6.80;5.47;;;25.70;49.30;;;;;;5060873;28;20179;-68
2023/07/24 06:53:43;;;;;;;6.80;5.00;;;25.70;49.30;;;;;;5060634;28;20182;-68
2023/07/24 06:56:09;;;;;;;7.50;6.60;;;25.70;49.30;;;;;;5060565;28;20179;-68
2023/07/24 06:58:35;;;;;;;6.90;5.50;;;25.70;49.40;;;;;;5061051;28;20293;-68
2023/07/24 07:01:04;;;;;;;7.00;6.30;;;25.70;49.40;;;;;;5060877;28;20163;-67
2023/07/24 07:03:31;;;;;;;6.63;5.63;;;25.70;49.50;;;;;;5043876;28;20610;-68
2023/07/24 07:06:00;;;;;;;6.40;5.13;;;25.70;49.50;;;;;;5060775;28;20405;-67
2023/07/24 07:08:25;;;;;;;6.80;5.80;;;25.70;49.40;;;;;;5060317;28;20199;-68
2023/07/24 07:10:59;;;;;;;10.53;7.03;;;25.70;49.30;;;;;;5059357;28;20421;-68
2023/07/24 07:13:24;;;;;;;7.00;5.83;;;25.70;49.20;;;;;;5061263;28;20159;-68
2023/07/24 07:15:50;;;;;;;7.20;5.50;;;25.70;49.00;;;;;;5061267;28;20453;-68
2023/07/24 07:18:15;;;;;;;7.27;6.37;;;25.70;49.10;;;;;;5060928;28;20260;-68
2023/07/24 07:20:49;;;;;;;6.77;5.60;;;25.70;49.20;;;;;;5061408;28;20707;-68
2023/07/24 07:23:15;;;;;;;7.30;5.63;;;25.70;49.30;;;;;;5060919;28;20170;-68
2023/07/24 07:25:43;;;;;;;7.10;5.67;;;25.70;49.20;;;;;;5059905;28;20444;-68
2023/07/24 07:28:09;;;;;;;8.93;6.40;;;25.70;49.20;;;;;;5061464;28;20217;-67
2023/07/24 07:30:34;;;;;;;7.53;6.03;;;25.70;49.30;;;;;;5061454;28;20941;-68
2023/07/24 07:33:00;;;;;;;6.30;5.50;;;25.70;49.30;;;;;;5061088;28;20418;-68
2023/07/24 07:35:26;;;;;;;9.40;6.40;;;25.70;49.30;;;;;;5061512;28;20266;-68
2023/07/24 07:37:52;;;;;;;7.40;6.27;;;25.70;49.40;;;;;;5061421;28;20237;-68
2023/07/24 07:40:17;;;;;;;6.90;5.73;;;25.70;49.40;;;;;;5060081;28;20260;-68
2023/07/24 07:42:44;;;;;;;7.90;6.60;;;25.80;49.50;;;;;;5060228;28;20186;-68
2023/07/24 07:45:10;;;;;;;7.20;5.57;;;25.80;49.50;;;;;;5060778;28;20195;-68
2023/07/24 07:47:36;;;;;;;7.20;6.30;;;25.70;49.50;;;;;;5060080;28;20452;-68
2023/07/24 07:50:02;;;;;;;8.07;6.37;;;25.80;49.50;;;;;;5058308;28;20191;-68
2023/07/24 07:52:27;;;;;;;7.23;6.47;;;25.80;49.50;;;;;;5060380;28;20171;-67
2023/07/24 07:54:53;;;;;;;9.03;6.83;;;25.80;49.50;;;;;;5058952;28;20202;-68
2023/07/24 07:57:18;;;;;;;9.27;5.93;;;25.80;49.50;;;;;;5059617;28;20199;-68
2023/07/24 07:59:44;;;;;;;6.50;5.83;;;25.80;49.60;;;;;;5058510;28;20167;-68
2023/07/24 08:02:10;;;;;;;10.10;6.40;;;25.80;49.60;;;;;;5059938;28;20640;-68
2023/07/24 08:04:35;;;;;;;7.40;5.67;;;25.80;49.70;;;;;;5059482;28;20233;-68
2023/07/24 08:07:01;;;;;;;6.83;6.03;;;25.80;49.50;;;;;;5058898;28;20171;-68
2023/07/24 08:09:27;;;;;;;7.90;6.50;;;25.80;49.50;;;;;;5059333;28;20199;-68
2023/07/24 08:11:52;;;;;;;7.10;5.87;;;25.80;49.40;;;;;;5059876;28;20163;-68
2023/07/24 08:14:18;;;;;;;8.53;6.33;;;25.80;49.40;;;;;;5059547;28;20179;-68
2023/07/24 08:16:43;;;;;;;9.07;6.77;;;25.80;49.50;;;;;;5059617;28;20197;-68
2023/07/24 08:19:09;;;;;;;6.47;5.87;;;25.80;49.50;;;;;;5060469;28;20214;-68
2023/07/24 08:21:35;;;;;;;8.30;6.17;;;25.80;49.40;;;;;;5060109;28;20171;-69
2023/07/24 08:24:02;;;;;;;7.30;5.97;;;25.80;49.40;;;;;;5060169;28;20199;-68
2023/07/24 08:26:28;;;;;;;8.50;6.80;;;25.80;49.50;;;;;;5058779;28;20433;-68
2023/07/24 08:28:53;;;;;;;7.43;5.63;;;25.80;49.60;;;;;;5058981;28;20445;-68
2023/07/24 08:31:19;;;;;;;7.43;6.17;;;25.80;49.50;;;;;;5058925;28;20424;-67
2023/07/24 08:33:45;;;;;;;7.73;6.47;;;25.80;49.40;;;;;;5059894;28;20183;-68
2023/07/24 08:36:12;;;;;;;8.67;5.87;;;25.80;49.40;;;;;;5058572;28;20179;-68
2023/07/24 08:38:38;;;;;;;7.27;6.47;;;25.80;49.40;;;;;;5059419;28;20199;-68
2023/07/24 08:41:10;;;;;;;8.23;6.40;;;25.80;49.40;;;;;;5058114;28;20432;-68
2023/07/24 08:43:36;;;;;;;8.90;6.37;;;25.80;49.50;;;;;;5060029;28;20226;-69
2023/07/24 08:46:04;;;;;;;8.27;6.03;;;25.80;49.40;;;;;;5059389;28;20436;-68
2023/07/24 08:48:35;;;;;;;6.60;5.63;;;25.80;49.40;;;;;;5059388;28;20453;-68
2023/07/24 08:51:05;;;;;;;8.10;6.57;;;25.80;49.40;;;;;;5059764;28;20417;-68
2023/07/24 08:53:35;;;;;;;6.93;5.60;;;25.80;49.40;;;;;;5058815;28;20420;-67
2023/07/24 08:56:06;;;;;;;7.80;6.37;;;25.80;49.40;;;;;;5059200;28;20839;-68
2023/07/24 08:58:32;;;;;;;8.33;6.30;;;25.80;49.40;;;;;;5059759;28;20836;-68
2023/07/24 09:00:59;;;;;;;6.90;6.03;;;25.80;49.40;;;;;;5060700;28;20471;-68
2023/07/24 09:03:25;;;;;;;6.90;5.97;;;25.80;49.40;;;;;;5063725;28;20417;-68
2023/07/24 09:05:51;;;;;;;9.03;6.47;;;25.80;49.50;;;;;;5062960;28;20433;-68
2023/07/24 09:08:16;;;;;;;6.03;5.27;;;25.80;49.50;;;;;;5063806;28;20969;-69
2023/07/24 09:10:42;;;;;;;6.23;5.63;;;25.80;49.50;;;;;;5063661;28;20520;-68
2023/07/24 09:13:11;;;;;;;5.93;5.20;;;25.90;49.60;;;;;;5063453;28;20609;-68
2023/07/24 09:15:41;;;;;;;7.63;5.90;;;25.80;49.50;;;;;;5062060;28;20183;-68
2023/07/24 09:18:07;;;;;;;6.73;5.77;;;25.80;49.50;;;;;;5062032;28;20504;-68
2023/07/24 09:20:43;;;;;;;7.67;6.13;;;25.80;49.90;;;;;;5063302;28;20417;-68
2023/07/24 09:23:10;;;;;;;7.00;5.70;;;25.90;49.60;;;;;;5063428;28;20205;-68
2023/07/24 09:25:38;;;;;;;7.30;6.00;;;25.80;49.50;;;;;;5063542;28;21251;-68
2023/07/24 09:28:14;;;;;;;8.10;6.13;;;25.80;49.50;;;;;;5062548;28;20449;-68
2023/07/24 09:30:40;;;;;;;6.53;5.63;;;25.80;49.60;;;;;;5063343;28;20413;-68
2023/07/24 09:33:06;;;;;;;7.10;5.80;;;25.80;49.60;;;;;;5062858;28;20421;-68
2023/07/24 09:35:32;;;;;;;7.10;6.13;;;25.80;49.60;;;;;;5062330;28;20416;-68
2023/07/24 09:38:10;;;;;;;9.37;6.87;;;25.80;49.60;;;;;;5062285;28;20469;-68
2023/07/24 09:40:43;;;;;;;6.73;6.10;;;25.90;49.70;;;;;;5061946;28;20203;-68
2023/07/24 09:43:18;;;;;;;6.50;5.80;;;25.80;49.60;;;;;;5061880;28;20439;-67
2023/07/24 09:45:45;;;;;;;7.97;5.90;;;25.80;49.70;;;;;;5061135;28;20420;-68
2023/07/24 09:48:14;;;;;;;6.67;5.70;;;25.80;49.70;;;;;;5061522;28;20841;-69
2023/07/24 09:50:42;;;;;;;10.23;7.53;;;25.80;49.80;;;;;;5062623;28;20408;-68
2023/07/24 09:53:13;;;;;;;7.33;6.63;;;25.80;49.80;;;;;;5062446;28;20763;-68
2023/07/24 09:55:55;;;;;;;6.60;5.90;;;25.80;49.90;;;;;;5063627;28;20829;-68
2023/07/24 09:58:23;;;;;;;6.77;5.80;;;25.80;50.00;;;;;;5044433;28;20487;-68
2023/07/24 10:00:49;;;;;;;7.73;6.40;;;25.80;49.90;;;;;;5063186;28;20409;-68
2023/07/24 10:03:16;;;;;;;8.20;6.63;;;25.80;49.90;;;;;;5062648;28;20936;-68
2023/07/24 10:05:44;;;;;;;13.63;6.70;;;25.80;49.90;;;;;;5062747;28;20413;-68
2023/07/24 10:08:15;;;;;;;6.37;5.70;;;25.90;49.90;;;;;;5060941;28;20441;-68
2023/07/24 10:10:40;;;;;;;7.90;6.03;;;25.90;49.90;;;;;;5061208;28;20421;-69
2023/07/24 10:13:10;;;;;;;6.50;5.37;;;25.90;49.90;;;;;;5062117;28;20485;-68
2023/07/24 10:15:37;;;;;;;8.00;6.60;;;25.80;49.80;;;;;;5061836;28;20182;-69
2023/07/24 10:18:07;;;;;;;7.17;5.77;;;25.90;49.90;;;;;;5061724;28;20469;-69
2023/07/24 10:20:42;;;;;;;6.60;5.87;;;25.90;49.90;;;;;;5061780;28;20510;-69
2023/07/24 10:23:10;;;;;;;8.50;6.53;;;25.90;49.90;;;;;;5061318;28;20397;-69
2023/07/24 10:25:40;;;;;;;8.90;6.70;;;25.90;49.80;;;;;;5061569;28;20467;-69
2023/07/24 10:28:10;;;;;;;7.40;5.60;;;25.80;49.80;;;;;;5059924;28;20452;-69
2023/07/24 10:30:40;;;;;;;7.80;6.37;;;25.80;49.80;;;;;;5062135;28;20397;-69
2023/07/24 10:33:13;;;;;;;7.03;6.33;;;25.80;49.70;;;;;;5054909;28;20426;-69
2023/07/24 10:35:42;;;;;;;8.27;6.33;;;25.90;49.80;;;;;;5041281;28;20537;-68
2023/07/24 10:38:08;;;;;;;7.23;6.17;;;25.90;49.80;;;;;;5041383;28;20466;-69
2023/07/24 10:40:34;;;;;;;6.70;5.70;;;25.90;49.80;;;;;;5039608;28;20441;-69
2023/07/24 10:43:05;;;;;;;7.50;5.90;;;25.90;49.70;;;;;;5040513;28;20414;-68
2023/07/24 10:45:52;;;;;;;7.00;5.60;;;25.90;49.90;;;;;;5040881;28;20900;-68
2023/07/24 10:48:19;;;;;;;7.17;6.00;;;25.90;49.90;;;;;;5040163;28;20454;-69
2023/07/24 10:50:47;;;;;;;7.87;6.20;;;25.90;49.80;;;;;;5041935;28;20479;-69
2023/07/24 10:53:21;;;;;;;7.10;5.93;;;25.90;49.90;;;;;;5041718;28;20509;-69
2023/07/24 10:55:47;;;;;;;7.20;5.97;;;25.90;49.80;;;;;;5041463;28;20496;-68
2023/07/24 10:58:14;;;;;;;8.10;5.90;;;25.90;49.80;;;;;;5040739;28;20473;-69
2023/07/24 11:00:40;;;;;;;7.70;6.90;;;25.90;49.80;;;;;;5040114;28;20501;-69
2023/07/24 11:03:10;;;;;;;9.10;6.60;;;25.90;49.70;;;;;;5040849;28;20411;-68
2023/07/24 11:05:42;;;;;;;7.30;6.27;;;25.90;49.70;;;;;;5041621;28;20505;-69
2023/07/24 11:08:14;;;;;;;6.80;6.07;;;25.90;49.80;;;;;;5040702;28;20451;-69
2023/07/24 11:10:54;;;;;;;6.63;5.80;;;25.90;49.80;;;;;;5041288;28;20394;-69
2023/07/24 11:13:22;;;;;;;8.93;6.33;;;25.90;49.80;;;;;;5041503;28;20406;-69
2023/07/24 11:15:49;;;;;;;7.43;6.10;;;25.90;49.80;;;;;;5041226;28;20410;-68
2023/07/24 11:18:15;;;;;;;7.10;5.90;;;25.90;50.40;;;;;;5041186;28;20462;-69
2023/07/24 11:20:55;;;;;;;5.80;5.20;;;25.90;49.80;;;;;;5041005;28;20420;-69
2023/07/24 11:23:22;;;;;;;6.20;5.47;;;25.90;49.90;;;;;;5040413;28;20778;-69
2023/07/24 11:25:51;;;;;;;6.77;5.70;;;25.90;49.70;;;;;;5041113;28;20808;-68
2023/07/24 11:28:16;;;;;;;7.57;6.03;;;25.90;49.80;;;;;;5040738;28;20426;-69
2023/07/24 11:30:43;;;;;;;5.90;5.27;;;25.90;49.80;;;;;;5041108;28;20480;-69
2023/07/24 11:33:11;;;;;;;7.37;5.27;;;25.90;49.90;;;;;;5040803;28;20198;-69
2023/07/24 11:35:39;;;;;;;8.73;6.23;;;25.90;49.80;;;;;;5040858;28;20422;-69
2023/07/24 11:38:05;;;;;;;8.20;5.40;;;25.90;49.70;;;;;;5040421;28;20486;-69
2023/07/24 11:40:35;;;;;;;7.27;5.77;;;25.90;49.70;;;;;;5040475;28;20414;-69
2023/07/24 11:43:02;;;;;;;6.97;5.67;;;25.90;49.70;;;;;;5040261;28;20464;-69
2023/07/24 11:45:29;;;;;;;8.07;5.80;;;25.90;49.70;;;;;;5039991;28;20419;-69
2023/07/24 11:47:56;;;;;;;6.67;5.80;;;26.00;49.90;;;;;;5039423;28;20434;-69
2023/07/24 11:50:22;;;;;;;7.50;5.87;;;25.90;49.80;;;;;;5038674;28;20422;-69
2023/07/24 11:52:53;;;;;;;5.90;5.13;;;25.90;49.70;;;;;;5040127;28;20426;-69
2023/07/24 11:55:32;;;;;;;8.70;6.40;;;26.00;49.80;;;;;;5039777;28;20433;-69
2023/07/24 11:58:00;;;;;;;6.60;5.57;;;25.90;49.80;;;;;;5038942;28;20512;-69
2023/07/24 12:00:27;;;;;;;6.97;6.10;;;25.90;49.80;;;;;;5040379;28;20414;-69
2023/07/24 12:02:53;;;;;;;7.77;5.80;;;25.90;49.70;;;;;;5038536;28;20494;-69
2023/07/24 12:05:19;;;;;;;7.10;5.77;;;25.90;49.80;;;;;;5039300;28;20927;-69
2023/07/24 12:07:46;;;;;;;6.80;5.80;;;25.90;49.80;;;;;;5037865;28;20703;-69
2023/07/24 12:10:12;;;;;;;7.97;6.40;;;25.90;49.90;;;;;;5039458;28;20187;-69
2023/07/24 12:12:46;;;;;;;6.77;6.07;;;25.90;49.90;;;;;;5039749;28;20410;-69
2023/07/24 12:15:12;;;;;;;6.93;5.87;;;25.90;49.80;;;;;;5039645;28;20405;-68
2023/07/24 12:17:38;;;;;;;7.83;5.43;;;25.90;49.80;;;;;;5038226;28;20469;-69
2023/07/24 12:20:09;;;;;;;7.13;5.43;;;25.90;49.90;;;;;;5039695;28;20407;-69
2023/07/24 12:22:35;;;;;;;5.80;5.20;;;25.90;49.90;;;;;;5039750;28;20387;-68
2023/07/24 12:25:05;;;;;;;7.90;5.97;;;25.90;50.00;;;;;;5039857;28;20418;-68
2023/07/24 12:27:31;;;;;;;6.60;4.80;;;25.90;49.90;;;;;;5039916;28;20852;-68
2023/07/24 12:29:58;;;;;;;8.07;5.90;;;26.00;50.00;;;;;;5039711;28;20426;-69
2023/07/24 12:32:24;;;;;;;7.33;6.00;;;26.00;50.00;;;;;;5039511;28;20406;-69
2023/07/24 12:34:51;;;;;;;7.13;6.30;;;25.90;49.90;;;;;;5037228;28;20418;-69
2023/07/24 12:37:17;;;;;;;7.20;6.10;;;26.00;49.90;;;;;;5039400;28;20418;-69
2023/07/24 12:39:45;;;;;;;7.83;5.40;;;26.00;49.90;;;;;;5039871;28;20406;-69
2023/07/24 12:42:11;;;;;;;7.40;5.70;;;26.00;50.00;;;;;;5039551;28;20403;-68
2023/07/24 12:44:37;;;;;;;6.83;5.90;;;26.00;50.00;;;;;;5039586;28;20406;-69